createdAt,value
2022-10-28T00:01:22.068Z,12.80
2022-10-28T00:03:56.177Z,12.70
2022-10-28T00:06:27.880Z,12.80
2022-10-28T00:08:55.101Z,12.80
2022-10-28T00:11:29.832Z,12.70
2022-10-28T00:14:01.010Z,12.70
2022-10-28T00:16:32.241Z,12.70
2022-10-28T00:19:00.934Z,12.70
2022-10-28T00:21:32.295Z,12.70
2022-10-28T00:23:59.925Z,12.70
2022-10-28T00:26:31.353Z,12.70
2022-10-28T00:29:06.272Z,12.70
2022-10-28T00:31:35.234Z,12.70
2022-10-28T00:34:05.217Z,12.70
2022-10-28T00:36:36.870Z,12.70
2022-10-28T00:39:11.686Z,12.70
2022-10-28T00:41:42.660Z,12.80
2022-10-28T00:44:47.483Z,12.90
2022-10-28T00:47:33.509Z,13.00
2022-10-28T00:50:26.648Z,13.10
2022-10-28T00:53:03.307Z,13.10
2022-10-28T00:55:32.077Z,13.30
2022-10-28T00:58:01.352Z,13.20
2022-10-28T01:00:28.532Z,13.20
2022-10-28T01:02:56.629Z,13.20
2022-10-28T01:05:29.155Z,13.10
2022-10-28T01:08:01.889Z,13.10
2022-10-28T01:11:08.084Z,13.10
2022-10-28T01:13:46.959Z,13.20
2022-10-28T01:16:41.598Z,13.20
2022-10-28T01:19:46.225Z,13.20
2022-10-28T01:25:19.770Z,13.30
2022-10-28T01:28:24.249Z,13.30
2022-10-28T01:31:18.564Z,13.30
2022-10-28T01:33:54.895Z,13.30
2022-10-28T01:36:54.807Z,13.30
2022-10-28T01:39:35.037Z,13.30
2022-10-28T01:42:16.566Z,13.30
2022-10-28T01:44:59.168Z,13.40
2022-10-28T01:47:32.342Z,13.40
2022-10-28T01:50:18.648Z,13.40
2022-10-28T01:52:48.511Z,13.50
2022-10-28T01:55:29.275Z,13.50
2022-10-28T01:57:59.563Z,13.50
2022-10-28T02:00:27.269Z,13.50
2022-10-28T02:02:56.578Z,13.50
2022-10-28T02:05:46.642Z,13.50
2022-10-28T02:08:19.735Z,13.50
2022-10-28T02:11:02.997Z,13.50
2022-10-28T02:13:47.878Z,13.50
2022-10-28T02:16:42.424Z,13.50
2022-10-28T02:19:44.126Z,13.50
2022-10-28T02:22:37.759Z,13.50
2022-10-28T02:25:18.769Z,13.50
2022-10-28T02:28:06.411Z,13.40
2022-10-28T02:30:49.628Z,13.40
2022-10-28T02:33:25.236Z,13.40
2022-10-28T02:36:04.035Z,13.40
2022-10-28T02:38:46.664Z,13.40
2022-10-28T02:41:21.359Z,13.40
2022-10-28T02:43:57.744Z,13.50
2022-10-28T02:46:27.238Z,13.50
2022-10-28T02:49:06.830Z,13.50
2022-10-28T02:51:58.310Z,13.60
2022-10-28T02:54:40.303Z,13.60
2022-10-28T02:57:17.870Z,13.70
2022-10-28T02:59:57.211Z,13.70
2022-10-28T03:02:25.349Z,13.60
2022-10-28T03:04:52.587Z,13.60
2022-10-28T03:07:20.148Z,13.60
2022-10-28T03:09:47.269Z,13.60
2022-10-28T03:12:14.454Z,13.50
2022-10-28T03:14:42.461Z,13.60
2022-10-28T03:17:09.538Z,13.60
2022-10-28T03:19:36.651Z,13.60
2022-10-28T03:22:03.879Z,13.60
2022-10-28T03:24:30.957Z,13.60
2022-10-28T03:26:58.080Z,13.60
2022-10-28T03:29:25.159Z,13.70
2022-10-28T03:31:52.213Z,13.70
2022-10-28T03:34:19.263Z,13.60
2022-10-28T03:36:46.324Z,13.60
2022-10-28T03:39:14.997Z,13.50
2022-10-28T03:41:42.062Z,13.50
2022-10-28T03:44:09.059Z,13.40
2022-10-28T03:46:36.346Z,13.40
2022-10-28T03:49:04.352Z,13.40
2022-10-28T03:51:31.514Z,13.40
2022-10-28T03:53:58.599Z,13.30
2022-10-28T03:56:25.743Z,13.30
2022-10-28T04:01:25.087Z,13.20
2022-10-28T04:03:52.473Z,13.20
2022-10-28T04:06:19.514Z,13.20
2022-10-28T04:08:46.584Z,13.20
2022-10-28T04:11:13.599Z,13.20
2022-10-28T04:13:40.668Z,13.20
2022-10-28T04:16:07.908Z,13.20
2022-10-28T04:18:35.627Z,13.10
2022-10-28T04:21:03.581Z,13.10
2022-10-28T04:23:30.715Z,13.10
2022-10-28T04:25:57.896Z,13.10
2022-10-28T04:28:24.889Z,13.10
2022-10-28T04:30:52.376Z,13.10
2022-10-28T04:33:19.468Z,13.10
2022-10-28T04:35:46.500Z,13.10
2022-10-28T04:38:14.315Z,13.10
2022-10-28T04:40:41.800Z,13.00
2022-10-28T04:43:10.198Z,13.00
2022-10-28T04:45:38.485Z,13.00
2022-10-28T04:48:05.678Z,13.00
2022-10-28T04:50:32.897Z,13.00
2022-10-28T04:53:00.446Z,13.10
2022-10-28T04:55:27.652Z,13.00
2022-10-28T04:58:00.420Z,13.00
2022-10-28T05:00:29.294Z,13.00
2022-10-28T05:02:57.246Z,13.10
2022-10-28T05:05:24.607Z,13.10
2022-10-28T05:07:52.007Z,13.00
2022-10-28T05:10:19.301Z,13.00
2022-10-28T05:12:46.567Z,13.00
2022-10-28T05:15:15.435Z,13.00
2022-10-28T05:17:47.360Z,13.10
2022-10-28T05:20:17.524Z,13.10
2022-10-28T05:22:53.901Z,13.00
2022-10-28T05:25:22.733Z,13.00
2022-10-28T05:27:50.249Z,13.00
2022-10-28T05:30:18.344Z,13.00
2022-10-28T05:32:47.402Z,13.00
2022-10-28T05:35:16.423Z,13.00
2022-10-28T05:37:44.046Z,13.00
2022-10-28T05:40:12.242Z,13.00
2022-10-28T05:42:43.431Z,12.90
2022-10-28T05:45:12.255Z,12.90
2022-10-28T05:47:46.959Z,12.90
2022-10-28T05:50:16.561Z,12.90
2022-10-28T05:52:53.009Z,12.90
2022-10-28T05:55:22.364Z,12.90
2022-10-28T05:57:52.130Z,12.90
2022-10-28T06:00:22.477Z,12.90
2022-10-28T06:02:49.607Z,12.80
2022-10-28T06:05:17.177Z,12.80
2022-10-28T06:07:44.296Z,12.90
2022-10-28T06:10:11.994Z,12.90
2022-10-28T06:12:37.995Z,12.90
2022-10-28T06:15:05.940Z,12.90
2022-10-28T06:17:32.961Z,12.90
2022-10-28T06:20:00.046Z,12.90
2022-10-28T06:22:27.121Z,12.90
2022-10-28T06:24:54.127Z,12.90
2022-10-28T06:27:21.139Z,12.90
2022-10-28T06:29:48.125Z,12.90
2022-10-28T06:32:15.396Z,13.00
2022-10-28T06:34:42.393Z,13.00
2022-10-28T06:37:09.520Z,13.00
2022-10-28T06:39:39.329Z,13.00
2022-10-28T06:42:06.398Z,13.00
2022-10-28T06:44:33.651Z,13.10
2022-10-28T06:47:02.349Z,13.10
2022-10-28T06:49:29.492Z,13.20
2022-10-28T06:51:56.501Z,13.20
2022-10-28T06:54:23.634Z,13.20
2022-10-28T06:56:50.965Z,13.30
2022-10-28T06:59:18.178Z,13.50
2022-10-28T07:01:45.438Z,13.50
2022-10-28T07:04:13.566Z,13.60
2022-10-28T07:06:41.389Z,13.50
2022-10-28T07:09:10.963Z,13.70
2022-10-28T07:11:38.001Z,13.70
2022-10-28T07:14:05.001Z,13.80
2022-10-28T07:16:32.347Z,13.80
2022-10-28T07:18:59.621Z,14.00
2022-10-28T07:21:28.598Z,14.10
2022-10-28T07:23:59.057Z,14.10
2022-10-28T07:26:26.385Z,14.20
2022-10-28T07:28:54.463Z,14.40
2022-10-28T07:31:21.639Z,14.60
2022-10-28T07:33:55.334Z,14.70
2022-10-28T07:36:22.539Z,14.80
2022-10-28T07:38:53.406Z,15.00
2022-10-28T07:41:22.357Z,15.10
2022-10-28T07:43:49.526Z,15.20
2022-10-28T07:46:18.253Z,15.20
2022-10-28T07:48:46.116Z,15.40
2022-10-28T07:51:15.414Z,15.40
2022-10-28T07:53:43.364Z,15.60
2022-10-28T07:56:15.047Z,15.90
2022-10-28T07:58:44.172Z,15.70
2022-10-28T08:01:15.026Z,15.60
2022-10-28T08:03:42.305Z,15.80
2022-10-28T08:06:17.451Z,15.80
2022-10-28T08:08:47.489Z,15.80
2022-10-28T08:11:20.588Z,15.90
2022-10-28T08:13:48.087Z,16.10
2022-10-28T08:16:15.303Z,16.20
2022-10-28T08:18:42.480Z,16.10
2022-10-28T08:21:10.963Z,16.20
2022-10-28T08:23:38.439Z,16.30
2022-10-28T08:26:05.956Z,16.30
2022-10-28T08:28:33.297Z,16.30
2022-10-28T08:31:09.455Z,16.50
2022-10-28T08:33:42.642Z,16.60
2022-10-28T08:36:13.419Z,16.50
2022-10-28T08:38:45.523Z,16.50
2022-10-28T08:41:38.206Z,16.60
2022-10-28T08:44:08.457Z,16.30
2022-10-28T08:47:07.786Z,16.40
2022-10-28T08:49:39.489Z,16.60
2022-10-28T08:52:26.630Z,16.40
2022-10-28T08:55:23.566Z,16.40
2022-10-28T08:58:05.003Z,16.40
2022-10-28T09:00:34.152Z,16.50
2022-10-28T09:03:12.875Z,16.60
2022-10-28T09:05:48.008Z,16.70
2022-10-28T09:08:25.659Z,16.60
2022-10-28T09:11:10.959Z,16.60
2022-10-28T09:14:28.880Z,16.50
2022-10-28T09:17:18.321Z,16.60
2022-10-28T09:19:58.539Z,16.70
2022-10-28T09:22:42.135Z,16.80
2022-10-28T09:25:57.346Z,16.70
2022-10-28T09:28:56.274Z,16.70
2022-10-28T09:31:52.965Z,16.90
2022-10-28T09:34:39.843Z,17.00
2022-10-28T09:37:16.441Z,17.30
2022-10-28T09:40:16.031Z,17.50
2022-10-28T09:43:09.427Z,17.80
2022-10-28T09:45:41.871Z,18.30
2022-10-28T09:48:27.478Z,18.50
2022-10-28T09:50:57.420Z,18.60
2022-10-28T09:53:44.402Z,18.60
2022-10-28T09:56:11.703Z,19.00
2022-10-28T09:58:42.332Z,18.80
2022-10-28T10:01:09.479Z,18.60
2022-10-28T10:03:36.533Z,18.40
2022-10-28T10:06:19.917Z,18.20
2022-10-28T10:08:48.228Z,18.00
2022-10-28T10:11:40.409Z,18.10
2022-10-28T10:14:11.974Z,18.00
2022-10-28T10:16:47.108Z,17.80
2022-10-28T10:19:14.292Z,18.00
2022-10-28T10:21:51.480Z,18.10
2022-10-28T10:24:33.033Z,18.00
2022-10-28T10:27:10.472Z,18.00
2022-10-28T10:29:44.685Z,17.90
2022-10-28T10:32:22.557Z,17.80
2022-10-28T10:35:12.980Z,17.80
2022-10-28T10:37:45.740Z,17.80
2022-10-28T10:40:13.148Z,17.80
2022-10-28T10:42:51.618Z,17.80
2022-10-28T10:45:28.112Z,17.90
2022-10-28T10:48:15.923Z,17.90
2022-10-28T10:50:48.988Z,18.10
2022-10-28T10:53:31.082Z,18.20
2022-10-28T10:56:08.622Z,18.30
2022-10-28T10:58:49.676Z,18.60
2022-10-28T11:01:25.554Z,19.40
2022-10-28T11:04:01.326Z,19.70
2022-10-28T11:06:32.100Z,20.00
2022-10-28T11:09:05.630Z,20.00
2022-10-28T11:11:40.727Z,20.20
2022-10-28T11:14:10.837Z,20.40
2022-10-28T11:16:59.476Z,20.40
2022-10-28T11:19:36.462Z,20.90
2022-10-28T11:22:40.145Z,21.40
2022-10-28T11:25:34.334Z,22.80
2022-10-28T11:28:28.661Z,23.10
2022-10-28T11:31:40.051Z,23.90
2022-10-28T11:34:54.655Z,25.20
2022-10-28T11:38:12.725Z,25.10
2022-10-28T11:40:48.320Z,25.30
2022-10-28T11:43:55.037Z,26.20
2022-10-28T11:47:18.454Z,27.40
2022-10-28T11:50:12.803Z,28.00
2022-10-28T11:52:48.680Z,28.50
2022-10-28T11:55:52.472Z,26.80
2022-10-28T11:59:17.952Z,26.50
2022-10-28T12:02:17.408Z,27.00
2022-10-28T12:05:14.058Z,27.10
2022-10-28T12:07:54.265Z,27.70
2022-10-28T12:10:58.089Z,28.00
2022-10-28T12:13:36.688Z,29.00
2022-10-28T12:16:34.785Z,29.00
2022-10-28T12:19:20.457Z,28.70
2022-10-28T12:22:44.729Z,29.80
2022-10-28T12:25:19.611Z,29.00
2022-10-28T12:27:50.491Z,27.30
2022-10-28T12:30:25.523Z,26.00
2022-10-28T12:33:01.695Z,25.60
2022-10-28T12:35:35.368Z,25.70
2022-10-28T12:38:25.662Z,24.70
2022-10-28T12:41:17.406Z,24.00
2022-10-28T12:43:49.069Z,24.10
2022-10-28T12:46:50.608Z,24.70
2022-10-28T12:50:04.128Z,25.60
2022-10-28T12:53:02.301Z,26.80
2022-10-28T12:55:55.778Z,26.30
2022-10-28T12:58:35.736Z,26.10
2022-10-28T13:01:10.715Z,26.30
2022-10-28T13:03:39.487Z,26.10
2022-10-28T13:06:44.168Z,25.50
2022-10-28T13:09:25.183Z,24.60
2022-10-28T13:12:06.082Z,24.10
2022-10-28T13:14:53.236Z,24.60
2022-10-28T13:17:33.249Z,25.70
2022-10-28T13:20:18.732Z,26.40
2022-10-28T13:23:04.717Z,26.00
2022-10-28T13:25:58.809Z,26.20
2022-10-28T13:28:43.438Z,25.70
2022-10-28T13:31:11.270Z,26.00
2022-10-28T13:33:51.010Z,26.60
2022-10-28T13:36:29.752Z,26.00
2022-10-28T13:39:00.999Z,27.50
2022-10-28T13:41:43.348Z,29.30
2022-10-28T13:44:27.834Z,29.30
2022-10-28T13:47:30.269Z,30.50
2022-10-28T13:50:06.942Z,30.20
2022-10-28T13:52:43.046Z,29.90
2022-10-28T13:55:43.163Z,29.50
2022-10-28T13:58:23.017Z,28.20
2022-10-28T14:00:53.285Z,26.80
2022-10-28T14:03:27.992Z,26.00
2022-10-28T14:06:00.046Z,25.90
2022-10-28T14:08:38.794Z,25.20
2022-10-28T14:11:14.122Z,25.20
2022-10-28T14:13:49.148Z,24.70
2022-10-28T14:16:25.478Z,24.20
2022-10-28T14:19:19.228Z,24.00
2022-10-28T14:22:01.552Z,23.60
2022-10-28T14:24:37.293Z,23.50
2022-10-28T14:27:08.005Z,23.00
2022-10-28T14:29:49.700Z,22.50
2022-10-28T14:32:31.789Z,22.20
2022-10-28T14:35:12.866Z,21.40
2022-10-28T14:38:32.365Z,21.10
2022-10-28T14:41:34.818Z,20.60
2022-10-28T14:44:26.822Z,19.80
2022-10-28T14:47:08.868Z,19.30
2022-10-28T14:49:38.693Z,19.10
2022-10-28T14:52:12.747Z,18.90
2022-10-28T14:54:58.249Z,18.60
2022-10-28T14:57:34.264Z,18.40
2022-10-28T15:00:07.920Z,18.30
2022-10-28T15:02:38.077Z,18.10
2022-10-28T15:05:20.525Z,18.10
2022-10-28T15:07:48.645Z,17.80
2022-10-28T15:10:38.292Z,17.80
2022-10-28T15:13:17.008Z,17.80
2022-10-28T15:15:53.678Z,17.70
2022-10-28T15:18:24.661Z,17.70
2022-10-28T15:21:09.589Z,17.50
2022-10-28T15:23:36.600Z,17.40
2022-10-28T15:26:21.689Z,17.30
2022-10-28T15:28:48.823Z,17.10
2022-10-28T15:31:17.495Z,17.10
2022-10-28T15:33:44.594Z,17.00
2022-10-28T15:36:19.623Z,17.00
2022-10-28T15:38:49.212Z,17.00
2022-10-28T15:41:28.373Z,17.00
2022-10-28T15:43:59.295Z,16.90
2022-10-28T15:46:27.588Z,16.90
2022-10-28T15:48:59.839Z,16.80
2022-10-28T15:51:27.776Z,16.80
2022-10-28T15:54:10.798Z,16.70
2022-10-28T15:57:04.335Z,16.70
2022-10-28T15:59:31.468Z,16.60
2022-10-28T16:01:59.405Z,16.60
2022-10-28T16:04:26.568Z,16.50
2022-10-28T16:06:58.004Z,16.50
2022-10-28T16:09:32.709Z,16.50
2022-10-28T16:12:05.896Z,16.40
2022-10-28T16:14:38.324Z,16.30
2022-10-28T16:17:08.411Z,16.20
2022-10-28T16:19:44.364Z,16.20
2022-10-28T16:22:14.266Z,16.20
2022-10-28T16:24:42.381Z,16.20
2022-10-28T16:27:26.855Z,16.10
2022-10-28T16:29:54.116Z,16.20
2022-10-28T16:32:39.356Z,16.10
2022-10-28T16:35:20.531Z,16.10
2022-10-28T16:37:53.733Z,16.10
2022-10-28T16:40:50.579Z,16.10
2022-10-28T16:43:23.550Z,16.00
2022-10-28T16:45:56.265Z,16.00
2022-10-28T16:48:30.796Z,16.00
2022-10-28T16:51:02.808Z,16.00
2022-10-28T16:53:29.873Z,15.90
2022-10-28T16:55:59.200Z,15.90
2022-10-28T16:58:28.399Z,15.90
2022-10-28T17:00:56.526Z,16.00
2022-10-28T17:03:23.572Z,16.00
2022-10-28T17:05:50.701Z,15.90
2022-10-28T17:08:30.779Z,15.90
2022-10-28T17:11:05.186Z,15.90
2022-10-28T17:13:34.040Z,15.80
2022-10-28T17:16:01.012Z,15.80
2022-10-28T17:18:28.048Z,15.80
2022-10-28T17:21:02.716Z,15.80
2022-10-28T17:23:30.187Z,15.70
2022-10-28T17:26:02.734Z,15.70
2022-10-28T17:28:30.034Z,15.80
2022-10-28T17:31:08.372Z,15.70
2022-10-28T17:33:35.644Z,15.70
2022-10-28T17:36:08.650Z,15.70
2022-10-28T17:38:36.377Z,15.70
2022-10-28T17:41:03.399Z,15.70
2022-10-28T17:43:30.440Z,15.70
2022-10-28T17:46:07.745Z,15.70
2022-10-28T17:48:35.164Z,15.60
2022-10-28T17:51:02.235Z,15.60
2022-10-28T17:53:29.309Z,15.60
2022-10-28T17:56:02.378Z,15.50
2022-10-28T17:58:30.070Z,15.50
2022-10-28T18:01:03.895Z,15.40
2022-10-28T18:03:34.116Z,15.40
2022-10-28T18:06:07.655Z,15.40
2022-10-28T18:08:43.165Z,15.30
2022-10-28T18:11:13.669Z,15.30
2022-10-28T18:13:52.877Z,15.20
2022-10-28T18:16:24.409Z,15.20
2022-10-28T18:18:53.349Z,15.20
2022-10-28T18:21:21.277Z,15.20
2022-10-28T18:23:53.033Z,15.20
2022-10-28T18:26:20.544Z,15.20
2022-10-28T18:28:49.035Z,15.20
2022-10-28T18:31:20.485Z,15.10
2022-10-28T18:33:49.156Z,15.10
2022-10-28T18:36:23.210Z,15.10
2022-10-28T18:38:51.303Z,15.10
2022-10-28T18:41:24.485Z,15.10
2022-10-28T18:43:56.281Z,15.10
2022-10-28T18:46:23.628Z,15.10
2022-10-28T18:48:50.702Z,15.10
2022-10-28T18:51:18.010Z,15.10
2022-10-28T18:53:48.038Z,15.10
2022-10-28T18:56:18.796Z,15.10
2022-10-28T18:58:51.491Z,15.10
2022-10-28T19:01:22.880Z,15.10
2022-10-28T19:03:58.868Z,15.00
2022-10-28T19:06:30.688Z,15.10
2022-10-28T19:09:00.906Z,15.00
2022-10-28T19:11:30.451Z,15.00
2022-10-28T19:14:03.023Z,15.10
2022-10-28T19:16:33.580Z,15.10
2022-10-28T19:19:03.095Z,15.10
2022-10-28T19:21:30.339Z,15.20
2022-10-28T19:23:59.962Z,15.10
2022-10-28T19:26:27.934Z,15.10
2022-10-28T19:28:55.168Z,15.00
2022-10-28T19:31:25.521Z,15.10
2022-10-28T19:33:54.058Z,15.10
2022-10-28T19:36:29.901Z,15.00
2022-10-28T19:38:58.220Z,15.00
2022-10-28T19:41:28.095Z,15.00
2022-10-28T19:44:01.318Z,15.00
2022-10-28T19:46:31.714Z,15.00
2022-10-28T19:49:01.669Z,15.00
2022-10-28T19:51:32.583Z,15.00
2022-10-28T19:54:02.802Z,14.90
2022-10-28T19:56:32.844Z,14.90
2022-10-28T19:59:02.588Z,14.80
2022-10-28T20:01:32.867Z,14.80
2022-10-28T20:04:00.404Z,14.80
2022-10-28T20:06:33.372Z,14.70
2022-10-28T20:09:00.901Z,14.70
2022-10-28T20:11:35.299Z,14.70
2022-10-28T20:14:06.298Z,14.70
2022-10-28T20:16:33.555Z,14.80
2022-10-28T20:19:00.787Z,14.80
2022-10-28T20:21:30.742Z,14.80
2022-10-28T20:23:58.309Z,14.70
2022-10-28T20:26:29.392Z,14.70
2022-10-28T20:28:57.949Z,14.70
2022-10-28T20:31:29.069Z,14.60
2022-10-28T20:34:03.821Z,14.60
2022-10-28T20:36:37.094Z,14.70
2022-10-28T20:39:16.761Z,14.70
2022-10-28T20:41:46.012Z,14.70
2022-10-28T20:44:13.412Z,14.70
2022-10-28T20:46:40.707Z,14.70
2022-10-28T20:49:08.984Z,14.70
2022-10-28T20:51:36.853Z,14.70
2022-10-28T20:54:04.218Z,14.80
2022-10-28T20:56:36.479Z,14.70
2022-10-28T20:59:05.358Z,14.70
2022-10-28T21:01:36.629Z,14.70
2022-10-28T21:04:07.189Z,14.70
2022-10-28T21:06:35.791Z,14.70
2022-10-28T21:09:04.999Z,14.70
2022-10-28T21:11:32.195Z,14.80
2022-10-28T21:14:01.720Z,14.80
2022-10-28T21:16:29.852Z,14.70
2022-10-28T21:18:59.108Z,14.80
2022-10-28T21:21:26.823Z,14.70
2022-10-28T21:23:53.840Z,14.60
2022-10-28T21:26:21.413Z,14.60
2022-10-28T21:28:52.870Z,14.60
2022-10-28T21:31:21.565Z,14.50
2022-10-28T21:36:20.037Z,14.50
2022-10-28T21:38:52.634Z,14.40
2022-10-28T21:41:21.788Z,14.40
2022-10-28T21:43:51.660Z,14.40
2022-10-28T21:46:20.929Z,14.40
2022-10-28T21:48:48.168Z,14.30
2022-10-28T21:51:18.276Z,14.30
2022-10-28T21:53:45.962Z,14.30
2022-10-28T21:56:18.579Z,14.30
2022-10-28T21:58:48.562Z,14.30
2022-10-28T22:01:22.832Z,14.30
2022-10-28T22:03:52.275Z,14.30
2022-10-28T22:06:19.383Z,14.30
2022-10-28T22:08:46.923Z,14.30
2022-10-28T22:11:18.049Z,14.30
2022-10-28T22:13:45.320Z,14.20
2022-10-28T22:16:16.158Z,14.20
2022-10-28T22:18:43.947Z,14.10
2022-10-28T22:21:15.136Z,14.10
2022-10-28T22:23:42.472Z,14.00
2022-10-28T22:26:13.999Z,14.00
2022-10-28T22:28:41.547Z,14.00
2022-10-28T22:31:12.589Z,13.90
2022-10-28T22:33:40.053Z,13.90
2022-10-28T22:36:13.956Z,13.90
2022-10-28T22:38:42.995Z,13.80
2022-10-28T22:41:25.794Z,13.80
2022-10-28T22:43:56.446Z,13.70
2022-10-28T22:46:26.536Z,13.70
2022-10-28T22:48:54.187Z,13.70
2022-10-28T22:51:21.852Z,13.60
2022-10-28T22:53:49.640Z,13.50
2022-10-28T22:56:20.691Z,13.50
2022-10-28T22:58:52.822Z,13.50
2022-10-28T23:01:20.653Z,13.40
2022-10-28T23:03:50.841Z,13.40
2022-10-28T23:06:21.529Z,13.40
2022-10-28T23:08:48.882Z,13.40
2022-10-28T23:11:18.125Z,13.30
2022-10-28T23:13:46.105Z,13.20
2022-10-28T23:16:15.614Z,13.10
2022-10-28T23:18:44.522Z,13.00
2022-10-28T23:21:16.723Z,12.90
2022-10-28T23:23:49.741Z,12.90
2022-10-28T23:26:20.250Z,12.90
2022-10-28T23:28:52.755Z,13.00
2022-10-28T23:31:21.136Z,13.00
2022-10-28T23:33:48.280Z,13.00
2022-10-28T23:36:15.882Z,13.00
2022-10-28T23:38:43.310Z,13.00
2022-10-28T23:41:16.073Z,13.00
2022-10-28T23:43:43.462Z,13.00
2022-10-28T23:46:10.855Z,13.10
2022-10-28T23:48:38.030Z,13.10
2022-10-28T23:51:05.300Z,13.20
2022-10-28T23:53:32.353Z,13.30
2022-10-28T23:55:59.398Z,13.40
2022-10-28T23:58:26.858Z,13.40
